createdAt,value
2023-01-17T00:00:03.598Z,100.00
2023-01-17T00:02:31.143Z,100.00
2023-01-17T00:05:13.125Z,100.00
2023-01-17T00:07:54.904Z,100.00
2023-01-17T00:10:24.450Z,100.00
2023-01-17T00:12:53.310Z,100.00
2023-01-17T00:15:21.033Z,100.00
2023-01-17T00:17:48.798Z,100.00
2023-01-17T00:20:32.686Z,100.00
2023-01-17T00:23:14.458Z,100.00
2023-01-17T00:25:56.555Z,100.00
2023-01-17T00:28:24.420Z,100.00
2023-01-17T00:30:51.451Z,100.00
2023-01-17T00:33:18.522Z,100.00
2023-01-17T00:35:45.032Z,100.00
2023-01-17T00:38:14.451Z,100.00
2023-01-17T00:40:43.389Z,100.00
2023-01-17T00:43:27.128Z,100.00
2023-01-17T00:46:09.429Z,100.00
2023-01-17T00:48:52.784Z,100.00
2023-01-17T00:51:35.579Z,100.00
2023-01-17T00:54:19.046Z,100.00
2023-01-17T00:57:01.456Z,100.00
2023-01-17T00:59:43.283Z,100.00
2023-01-17T01:02:27.590Z,100.00
2023-01-17T01:05:10.448Z,100.00
2023-01-17T01:07:52.205Z,100.00
2023-01-17T01:10:34.037Z,100.00
2023-01-17T01:13:15.828Z,100.00
2023-01-17T01:15:57.642Z,100.00
2023-01-17T01:18:39.634Z,100.00
2023-01-17T01:21:21.474Z,100.00
2023-01-17T01:24:03.457Z,100.00
2023-01-17T01:26:45.302Z,100.00
2023-01-17T01:29:27.076Z,100.00
2023-01-17T01:32:08.869Z,100.00
2023-01-17T01:34:35.484Z,100.00
2023-01-17T01:37:02.069Z,100.00
2023-01-17T01:39:28.619Z,100.00
2023-01-17T01:41:55.173Z,100.00
2023-01-17T01:44:46.006Z,100.00
2023-01-17T01:47:21.544Z,100.00
2023-01-17T01:49:48.789Z,100.00
2023-01-17T01:52:17.498Z,100.00
2023-01-17T01:54:53.801Z,100.00
2023-01-17T01:57:24.531Z,100.00
2023-01-17T01:59:58.352Z,100.00
2023-01-17T02:02:25.709Z,100.00
2023-01-17T02:04:52.672Z,100.00
2023-01-17T02:07:29.220Z,100.00
2023-01-17T02:09:55.816Z,100.00
2023-01-17T02:12:23.493Z,100.00
2023-01-17T02:14:50.069Z,100.00
2023-01-17T02:17:47.159Z,100.00
2023-01-17T02:20:42.745Z,100.00
2023-01-17T02:23:38.243Z,100.00
2023-01-17T02:26:21.195Z,100.00
2023-01-17T02:29:10.899Z,100.00
2023-01-17T02:31:58.180Z,100.00
2023-01-17T02:34:28.668Z,100.00
2023-01-17T02:37:06.479Z,100.00
2023-01-17T02:39:40.321Z,100.00
2023-01-17T02:42:12.781Z,100.00
2023-01-17T02:44:42.112Z,100.00
2023-01-17T02:47:24.007Z,100.00
2023-01-17T02:49:53.677Z,100.00
2023-01-17T02:52:52.504Z,100.00
2023-01-17T02:55:32.692Z,100.00
2023-01-17T02:58:15.731Z,100.00
2023-01-17T03:00:42.380Z,100.00
2023-01-17T03:03:24.296Z,100.00
2023-01-17T03:06:11.910Z,100.00
2023-01-17T03:08:41.353Z,100.00
2023-01-17T03:11:09.800Z,100.00
2023-01-17T03:13:37.343Z,100.00
2023-01-17T03:16:11.871Z,100.00
2023-01-17T03:18:39.188Z,100.00
2023-01-17T03:21:05.971Z,100.00
2023-01-17T03:23:32.563Z,100.00
2023-01-17T03:25:59.129Z,100.00
2023-01-17T03:28:28.907Z,100.00
2023-01-17T03:30:58.768Z,100.00
2023-01-17T03:33:25.415Z,100.00
2023-01-17T03:35:52.901Z,100.00
2023-01-17T03:38:19.611Z,100.00
2023-01-17T03:40:46.414Z,100.00
2023-01-17T03:43:13.011Z,100.00
2023-01-17T03:45:39.642Z,100.00
2023-01-17T03:48:06.607Z,100.00
2023-01-17T03:50:33.247Z,100.00
2023-01-17T03:52:59.878Z,100.00
2023-01-17T03:55:26.565Z,100.00
2023-01-17T03:57:53.111Z,100.00
2023-01-17T04:00:20.850Z,100.00
2023-01-17T04:02:47.455Z,100.00
2023-01-17T04:05:14.167Z,100.00
2023-01-17T04:07:41.224Z,100.00
2023-01-17T04:10:08.078Z,100.00
2023-01-17T04:12:34.686Z,100.00
2023-01-17T04:15:01.250Z,100.00
2023-01-17T04:17:27.861Z,100.00
2023-01-17T04:19:54.467Z,100.00
2023-01-17T04:22:21.037Z,100.00
2023-01-17T04:24:47.622Z,100.00
2023-01-17T04:27:14.413Z,100.00
2023-01-17T04:29:41.167Z,100.00
2023-01-17T04:32:07.790Z,100.00
2023-01-17T04:34:34.457Z,100.00
2023-01-17T04:37:01.025Z,100.00
2023-01-17T04:39:27.656Z,100.00
2023-01-17T04:41:54.236Z,100.00
2023-01-17T04:44:20.828Z,100.00
2023-01-17T04:46:47.424Z,100.00
2023-01-17T04:49:13.991Z,100.00
2023-01-17T04:51:40.609Z,100.00
2023-01-17T04:54:07.196Z,100.00
2023-01-17T04:56:33.783Z,100.00
2023-01-17T04:59:00.416Z,100.00
2023-01-17T05:01:27.373Z,100.00
2023-01-17T05:03:54.012Z,100.00
2023-01-17T05:06:20.719Z,100.00
2023-01-17T05:08:47.326Z,100.00
2023-01-17T05:11:13.949Z,100.00
2023-01-17T05:13:40.561Z,100.00
2023-01-17T05:16:07.417Z,100.00
2023-01-17T05:18:34.011Z,99.40
2023-01-17T05:21:02.374Z,100.00
2023-01-17T05:23:29.002Z,100.00
2023-01-17T05:25:55.670Z,100.00
2023-01-17T05:28:22.283Z,99.98
2023-01-17T05:30:48.983Z,100.00
2023-01-17T05:33:15.759Z,100.00
2023-01-17T05:35:42.329Z,100.00
2023-01-17T05:38:08.933Z,100.00
2023-01-17T05:40:35.620Z,100.00
2023-01-17T05:43:04.053Z,99.45
2023-01-17T05:45:32.496Z,99.54
2023-01-17T05:47:59.445Z,99.25
2023-01-17T05:50:30.133Z,98.30
2023-01-17T05:53:02.003Z,98.45
2023-01-17T05:55:30.623Z,98.05
2023-01-17T05:57:57.282Z,97.18
2023-01-17T06:00:24.383Z,96.70
2023-01-17T06:02:54.455Z,96.95
2023-01-17T06:05:22.345Z,96.97
2023-01-17T06:07:49.474Z,97.36
2023-01-17T06:10:18.418Z,96.99
2023-01-17T06:12:46.536Z,97.07
2023-01-17T06:15:15.371Z,98.11
2023-01-17T06:17:41.991Z,97.57
2023-01-17T06:20:10.482Z,98.02
2023-01-17T06:22:37.179Z,98.99
2023-01-17T06:25:04.174Z,99.16
2023-01-17T06:27:30.871Z,99.13
2023-01-17T06:29:57.459Z,99.32
2023-01-17T06:32:24.082Z,99.25
2023-01-17T06:34:50.730Z,98.33
2023-01-17T06:37:17.319Z,98.59
2023-01-17T06:39:44.053Z,98.81
2023-01-17T06:42:10.657Z,98.74
2023-01-17T06:44:37.371Z,99.01
2023-01-17T06:47:03.967Z,99.56
2023-01-17T06:49:30.586Z,99.27
2023-01-17T06:51:57.148Z,99.96
2023-01-17T06:54:23.748Z,100.00
2023-01-17T06:56:50.288Z,100.00
2023-01-17T06:59:16.883Z,100.00
2023-01-17T07:01:43.524Z,100.00
2023-01-17T07:04:10.194Z,100.00
2023-01-17T07:06:37.216Z,100.00
2023-01-17T07:09:04.766Z,100.00
2023-01-17T07:11:31.887Z,100.00
2023-01-17T07:13:58.563Z,100.00
2023-01-17T07:16:25.305Z,100.00
2023-01-17T07:18:52.081Z,100.00
2023-01-17T07:21:18.959Z,100.00
2023-01-17T07:23:45.621Z,100.00
2023-01-17T07:26:12.180Z,100.00
2023-01-17T07:28:42.029Z,100.00
2023-01-17T07:31:11.882Z,100.00
2023-01-17T07:33:38.548Z,100.00
2023-01-17T07:36:07.474Z,100.00
2023-01-17T07:38:34.642Z,100.00
2023-01-17T07:41:01.448Z,100.00
2023-01-17T07:43:28.163Z,100.00
2023-01-17T07:45:54.909Z,100.00
2023-01-17T07:48:24.284Z,100.00
2023-01-17T07:50:54.541Z,98.79
2023-01-17T07:53:23.299Z,97.80
2023-01-17T07:55:49.873Z,96.15
2023-01-17T07:58:16.761Z,96.64
2023-01-17T08:00:44.893Z,96.34
2023-01-17T08:03:14.177Z,95.13
2023-01-17T08:05:42.354Z,95.22
2023-01-17T08:08:09.072Z,94.63
2023-01-17T08:10:36.106Z,94.22
2023-01-17T08:13:02.772Z,93.17
2023-01-17T08:15:29.419Z,91.28
2023-01-17T08:17:57.734Z,91.40
2023-01-17T08:20:27.566Z,92.52
2023-01-17T08:22:56.227Z,92.05
2023-01-17T08:25:25.187Z,91.51
2023-01-17T08:27:56.161Z,91.08
2023-01-17T08:30:22.999Z,90.67
2023-01-17T08:32:49.628Z,90.13
2023-01-17T08:35:16.276Z,88.30
2023-01-17T08:37:42.903Z,86.78
2023-01-17T08:40:11.174Z,85.16
2023-01-17T08:42:40.136Z,84.14
2023-01-17T08:45:09.978Z,83.54
2023-01-17T08:47:37.117Z,83.07
2023-01-17T08:50:06.771Z,82.16
2023-01-17T08:52:33.922Z,82.45
2023-01-17T08:55:00.471Z,81.65
2023-01-17T08:57:27.094Z,82.64
2023-01-17T08:59:53.627Z,82.29
2023-01-17T09:02:20.600Z,82.39
2023-01-17T09:04:48.581Z,83.15
2023-01-17T09:07:17.662Z,84.41
2023-01-17T09:09:44.504Z,86.47
2023-01-17T09:12:11.159Z,86.66
2023-01-17T09:14:38.318Z,85.57
2023-01-17T09:17:06.901Z,85.46
2023-01-17T09:19:33.731Z,85.71
2023-01-17T09:22:00.327Z,88.53
2023-01-17T09:24:26.952Z,88.70
2023-01-17T09:26:53.563Z,88.72
2023-01-17T09:29:20.245Z,88.91
2023-01-17T09:31:48.232Z,87.91
2023-01-17T09:34:15.201Z,86.44
2023-01-17T09:36:42.516Z,85.82
2023-01-17T09:39:10.782Z,84.41
2023-01-17T09:41:49.901Z,83.52
2023-01-17T09:44:37.359Z,82.37
2023-01-17T09:47:16.073Z,81.83
2023-01-17T09:49:44.997Z,81.38
2023-01-17T09:52:15.184Z,76.04
2023-01-17T09:54:44.666Z,76.23
2023-01-17T09:57:42.023Z,72.06
2023-01-17T10:00:08.589Z,68.77
2023-01-17T10:02:47.431Z,68.32
2023-01-17T10:05:44.717Z,68.22
2023-01-17T10:08:18.591Z,64.09
2023-01-17T10:11:05.054Z,63.37
2023-01-17T10:13:47.013Z,61.97
2023-01-17T10:16:44.390Z,61.36
2023-01-17T10:19:17.986Z,59.87
2023-01-17T10:22:02.408Z,58.55
2023-01-17T10:24:44.307Z,59.15
2023-01-17T10:27:28.164Z,58.92
2023-01-17T10:29:54.822Z,56.95
2023-01-17T10:32:25.980Z,58.75
2023-01-17T10:34:53.449Z,59.86
2023-01-17T10:37:31.518Z,60.18
2023-01-17T10:40:14.043Z,56.21
2023-01-17T10:42:52.402Z,58.45
2023-01-17T10:45:28.384Z,57.09
2023-01-17T10:48:15.551Z,60.23
2023-01-17T10:50:54.919Z,61.57
2023-01-17T10:53:37.949Z,62.32
2023-01-17T10:56:05.015Z,61.71
2023-01-17T10:58:31.861Z,58.25
2023-01-17T11:01:02.157Z,56.08
2023-01-17T11:03:29.337Z,56.66
2023-01-17T11:06:16.154Z,56.56
2023-01-17T11:08:57.974Z,54.99
2023-01-17T11:11:31.024Z,54.14
2023-01-17T11:14:00.932Z,56.99
2023-01-17T11:16:31.414Z,56.35
2023-01-17T11:19:25.859Z,55.36
2023-01-17T11:21:57.738Z,53.34
2023-01-17T11:24:32.005Z,53.38
2023-01-17T11:26:58.900Z,54.28
2023-01-17T11:29:39.079Z,54.12
2023-01-17T11:32:28.926Z,57.13
2023-01-17T11:35:16.377Z,57.47
2023-01-17T11:38:05.039Z,56.03
2023-01-17T11:40:40.457Z,56.65
2023-01-17T11:43:23.930Z,59.03
2023-01-17T11:46:14.195Z,62.09
2023-01-17T11:48:40.848Z,62.25
2023-01-17T11:51:20.732Z,63.46
2023-01-17T11:53:48.386Z,65.39
2023-01-17T11:56:33.051Z,65.59
2023-01-17T11:59:14.923Z,66.73
2023-01-17T12:01:55.788Z,67.93
2023-01-17T12:04:25.140Z,65.88
2023-01-17T12:07:09.615Z,65.32
2023-01-17T12:09:52.536Z,65.04
2023-01-17T12:12:41.673Z,63.75
2023-01-17T12:15:08.303Z,65.74
2023-01-17T12:17:35.820Z,67.91
2023-01-17T12:20:06.117Z,68.09
2023-01-17T12:22:48.068Z,69.87
2023-01-17T12:25:30.055Z,67.87
2023-01-17T12:28:03.861Z,69.74
2023-01-17T12:30:57.412Z,68.81
2023-01-17T12:33:39.355Z,71.28
2023-01-17T12:36:19.283Z,70.74
2023-01-17T12:38:48.320Z,72.66
2023-01-17T12:41:23.486Z,71.28
2023-01-17T12:43:55.266Z,73.40
2023-01-17T12:46:43.192Z,72.61
2023-01-17T12:49:22.245Z,72.26
2023-01-17T12:51:53.869Z,72.91
2023-01-17T12:54:33.502Z,70.85
2023-01-17T12:57:09.417Z,71.26
2023-01-17T12:59:46.180Z,71.27
2023-01-17T13:02:21.492Z,70.39
2023-01-17T13:04:59.088Z,70.87
2023-01-17T13:07:45.559Z,72.23
2023-01-17T13:10:32.921Z,71.13
2023-01-17T13:13:09.667Z,71.40
2023-01-17T13:15:40.549Z,72.86
2023-01-17T13:18:14.608Z,72.34
2023-01-17T13:21:11.822Z,73.01
2023-01-17T13:23:56.157Z,72.94
2023-01-17T13:26:39.261Z,73.13
2023-01-17T13:29:31.814Z,73.01
2023-01-17T13:32:33.586Z,73.32
2023-01-17T13:35:11.700Z,74.43
2023-01-17T13:38:13.618Z,74.29
2023-01-17T13:40:58.667Z,74.28
2023-01-17T13:43:30.613Z,73.78
2023-01-17T13:46:00.377Z,73.91
2023-01-17T13:48:31.305Z,73.63
2023-01-17T13:50:58.875Z,74.04
2023-01-17T13:53:40.626Z,74.16
2023-01-17T13:56:22.409Z,74.16
2023-01-17T13:58:50.269Z,74.23
2023-01-17T14:01:52.509Z,73.87
2023-01-17T14:04:19.767Z,74.13
2023-01-17T14:06:52.842Z,74.56
2023-01-17T14:09:30.620Z,74.63
2023-01-17T14:12:24.642Z,74.13
2023-01-17T14:14:55.535Z,74.62
2023-01-17T14:17:23.015Z,74.31
2023-01-17T14:19:53.118Z,73.97
2023-01-17T14:22:19.655Z,74.19
2023-01-17T14:25:15.022Z,74.61
2023-01-17T14:27:42.620Z,75.29
2023-01-17T14:30:22.395Z,74.46
2023-01-17T14:33:08.854Z,74.42
2023-01-17T14:35:40.586Z,74.68
2023-01-17T14:38:23.780Z,74.66
2023-01-17T14:40:54.525Z,75.32
2023-01-17T14:43:24.522Z,75.02
2023-01-17T14:45:59.299Z,74.84
2023-01-17T14:48:26.602Z,74.29
2023-01-17T14:50:57.393Z,74.51
2023-01-17T14:53:28.153Z,74.37
2023-01-17T14:55:57.666Z,74.97
2023-01-17T14:58:27.723Z,74.70
2023-01-17T15:01:00.011Z,74.66
2023-01-17T15:03:27.610Z,74.98
2023-01-17T15:05:56.472Z,75.29
2023-01-17T15:08:29.026Z,75.66
2023-01-17T15:11:00.713Z,75.96
2023-01-17T15:13:43.878Z,75.33
2023-01-17T15:16:23.548Z,74.76
2023-01-17T15:18:51.919Z,75.39
2023-01-17T15:21:22.008Z,75.41
2023-01-17T15:23:53.003Z,74.92
2023-01-17T15:26:23.529Z,75.08
2023-01-17T15:28:50.902Z,75.73
2023-01-17T15:31:42.240Z,76.13
2023-01-17T15:34:30.009Z,76.28
2023-01-17T15:37:00.585Z,76.61
2023-01-17T15:39:31.839Z,76.22
2023-01-17T15:42:01.739Z,76.08
2023-01-17T15:44:46.712Z,76.36
2023-01-17T15:47:31.141Z,75.75
2023-01-17T15:49:58.732Z,75.36
2023-01-17T15:52:25.420Z,76.17
2023-01-17T15:54:54.560Z,76.10
2023-01-17T15:57:37.265Z,75.31
2023-01-17T16:00:07.730Z,76.02
2023-01-17T16:02:42.929Z,76.20
2023-01-17T16:05:25.778Z,76.27
2023-01-17T16:07:55.223Z,76.21
2023-01-17T16:10:25.210Z,76.48
2023-01-17T16:12:53.896Z,76.43
2023-01-17T16:15:22.118Z,75.54
2023-01-17T16:17:52.453Z,76.43
2023-01-17T16:20:37.243Z,76.54
2023-01-17T16:23:04.108Z,76.54
2023-01-17T16:25:32.764Z,75.84
2023-01-17T16:28:00.333Z,76.53
2023-01-17T16:30:28.164Z,75.89
2023-01-17T16:32:56.609Z,77.19
2023-01-17T16:35:25.710Z,77.43
2023-01-17T16:37:54.653Z,77.49
2023-01-17T16:40:24.300Z,77.98
2023-01-17T16:42:51.246Z,78.01
2023-01-17T16:45:18.787Z,77.73
2023-01-17T16:47:47.405Z,77.03
2023-01-17T16:50:17.354Z,76.80
2023-01-17T16:52:44.079Z,77.22
2023-01-17T16:55:14.790Z,77.93
2023-01-17T16:57:42.028Z,77.52
2023-01-17T17:00:12.094Z,76.92
2023-01-17T17:02:39.514Z,76.62
2023-01-17T17:05:08.425Z,77.73
2023-01-17T17:07:42.803Z,77.21
2023-01-17T17:10:11.197Z,77.64
2023-01-17T17:12:37.964Z,77.43
2023-01-17T17:15:05.480Z,77.52
2023-01-17T17:17:37.113Z,77.31
2023-01-17T17:20:04.953Z,77.73
2023-01-17T17:22:31.755Z,78.95
2023-01-17T17:24:58.387Z,79.28
2023-01-17T17:27:27.693Z,78.84
2023-01-17T17:29:54.502Z,79.02
2023-01-17T17:32:21.843Z,78.31
2023-01-17T17:34:50.774Z,78.42
2023-01-17T17:37:17.810Z,78.42
2023-01-17T17:39:45.540Z,78.70
2023-01-17T17:42:12.777Z,79.16
2023-01-17T17:44:39.589Z,79.23
2023-01-17T17:47:06.196Z,79.53
2023-01-17T17:49:32.887Z,80.17
2023-01-17T17:52:07.997Z,79.84
2023-01-17T17:54:35.405Z,79.59
2023-01-17T17:57:02.298Z,79.85
2023-01-17T17:59:29.877Z,79.54
2023-01-17T18:01:57.149Z,80.24
2023-01-17T18:04:23.847Z,80.09
2023-01-17T18:06:50.517Z,79.90
2023-01-17T18:09:17.357Z,80.11
2023-01-17T18:11:44.607Z,79.84
2023-01-17T18:14:13.621Z,80.54
2023-01-17T18:16:42.613Z,80.40
2023-01-17T18:19:14.757Z,80.45
2023-01-17T18:21:41.700Z,80.21
2023-01-17T18:24:12.117Z,80.20
2023-01-17T18:26:43.773Z,80.75
2023-01-17T18:29:14.871Z,80.81
2023-01-17T18:31:43.228Z,81.06
2023-01-17T18:34:13.928Z,81.29
2023-01-17T18:36:41.076Z,81.24
2023-01-17T18:39:13.153Z,81.40
2023-01-17T18:41:40.125Z,82.03
2023-01-17T18:44:07.563Z,81.69
2023-01-17T18:46:35.292Z,82.03
2023-01-17T18:49:02.446Z,81.83
2023-01-17T18:51:32.242Z,81.78
2023-01-17T18:54:02.819Z,81.97
2023-01-17T18:56:32.037Z,81.00
2023-01-17T18:58:58.780Z,81.79
2023-01-17T19:01:28.382Z,81.65
2023-01-17T19:03:58.329Z,82.39
2023-01-17T19:06:30.365Z,82.68
2023-01-17T19:08:58.346Z,83.00
2023-01-17T19:11:26.626Z,83.04
2023-01-17T19:13:53.847Z,83.05
2023-01-17T19:16:24.729Z,82.94
2023-01-17T19:18:52.540Z,83.15
2023-01-17T19:21:21.990Z,83.54
2023-01-17T19:23:49.207Z,83.46
2023-01-17T19:26:17.374Z,83.31
2023-01-17T19:28:45.318Z,82.75
2023-01-17T19:31:15.173Z,83.37
2023-01-17T19:33:48.739Z,82.95
2023-01-17T19:36:23.496Z,82.97
2023-01-17T19:39:03.607Z,83.49
2023-01-17T19:41:35.187Z,83.61
2023-01-17T19:44:05.345Z,82.83
2023-01-17T19:46:33.188Z,83.50
2023-01-17T19:49:00.447Z,84.25
2023-01-17T19:51:28.041Z,84.49
2023-01-17T19:53:55.256Z,85.00
2023-01-17T19:56:25.459Z,85.37
2023-01-17T19:58:52.864Z,86.08
2023-01-17T20:01:19.551Z,85.86
2023-01-17T20:03:46.797Z,85.90
2023-01-17T20:06:16.224Z,86.57
2023-01-17T20:08:43.568Z,86.82
2023-01-17T20:11:14.724Z,86.81
2023-01-17T20:13:42.622Z,87.20
2023-01-17T20:16:11.677Z,87.72
2023-01-17T20:18:38.444Z,87.40
2023-01-17T20:21:09.472Z,87.72
2023-01-17T20:23:38.819Z,88.13
2023-01-17T20:26:06.115Z,88.46
2023-01-17T20:28:34.740Z,88.37
2023-01-17T20:31:12.745Z,88.71
2023-01-17T20:33:41.991Z,88.91
2023-01-17T20:36:11.565Z,89.29
2023-01-17T20:38:46.834Z,89.69
2023-01-17T20:41:16.476Z,89.48
2023-01-17T20:43:44.953Z,89.69
2023-01-17T20:46:12.496Z,89.14
2023-01-17T20:48:48.571Z,89.39
2023-01-17T20:51:17.115Z,89.57
2023-01-17T20:53:45.119Z,89.68
2023-01-17T20:56:14.498Z,90.04
2023-01-17T20:58:42.128Z,90.12
2023-01-17T21:01:11.416Z,89.10
2023-01-17T21:03:39.247Z,88.92
2023-01-17T21:06:09.993Z,89.16
2023-01-17T21:08:39.240Z,89.54
2023-01-17T21:11:07.558Z,89.60
2023-01-17T21:13:34.938Z,90.82
2023-01-17T21:16:02.461Z,90.05
2023-01-17T21:18:31.972Z,90.93
2023-01-17T21:21:08.244Z,91.20
2023-01-17T21:23:35.857Z,90.61
2023-01-17T21:26:02.466Z,91.36
2023-01-17T21:28:31.516Z,91.18
2023-01-17T21:30:58.266Z,91.21
2023-01-17T21:33:26.922Z,91.48
2023-01-17T21:35:53.487Z,91.86
2023-01-17T21:38:20.188Z,91.69
2023-01-17T21:40:47.040Z,92.80
2023-01-17T21:43:13.720Z,93.28
2023-01-17T21:45:41.866Z,93.89
2023-01-17T21:48:12.382Z,93.63
2023-01-17T21:50:39.565Z,93.31
2023-01-17T21:53:06.834Z,91.92
2023-01-17T21:55:48.663Z,90.84
2023-01-17T21:58:32.773Z,90.58
2023-01-17T22:01:08.947Z,91.95
2023-01-17T22:03:36.396Z,90.42
2023-01-17T22:06:04.909Z,90.14
2023-01-17T22:08:33.286Z,90.82
2023-01-17T22:11:04.770Z,92.13
2023-01-17T22:13:32.591Z,93.19
2023-01-17T22:16:02.261Z,93.09
2023-01-17T22:18:29.854Z,92.87
2023-01-17T22:20:57.168Z,93.33
2023-01-17T22:23:23.976Z,93.20
2023-01-17T22:25:50.656Z,93.57
2023-01-17T22:28:17.355Z,93.86
2023-01-17T22:30:44.119Z,93.96
2023-01-17T22:33:10.761Z,93.71
2023-01-17T22:35:37.481Z,94.24
2023-01-17T22:38:04.081Z,94.68
2023-01-17T22:40:32.616Z,94.60
2023-01-17T22:42:59.535Z,94.26
2023-01-17T22:45:27.372Z,94.66
2023-01-17T22:47:54.000Z,95.12
2023-01-17T22:50:20.604Z,95.04
2023-01-17T22:52:47.167Z,95.22
2023-01-17T22:55:13.806Z,94.89
2023-01-17T22:57:40.431Z,95.06
2023-01-17T23:00:14.502Z,95.53
2023-01-17T23:02:41.843Z,95.13
2023-01-17T23:05:10.058Z,95.45
2023-01-17T23:07:44.695Z,95.50
2023-01-17T23:10:13.182Z,95.01
2023-01-17T23:12:43.227Z,94.81
2023-01-17T23:15:25.124Z,95.14
2023-01-17T23:18:11.674Z,95.72
2023-01-17T23:20:38.281Z,96.56
2023-01-17T23:23:04.825Z,96.28
2023-01-17T23:25:31.408Z,95.78
2023-01-17T23:28:13.311Z,96.59
2023-01-17T23:30:41.526Z,96.80
2023-01-17T23:33:09.064Z,97.17
2023-01-17T23:35:42.404Z,97.75
2023-01-17T23:38:30.826Z,98.07
2023-01-17T23:41:18.035Z,98.26
2023-01-17T23:43:45.070Z,97.79
2023-01-17T23:46:12.860Z,97.81
2023-01-17T23:48:39.585Z,97.77
2023-01-17T23:51:10.957Z,98.09
2023-01-17T23:53:38.846Z,97.72
2023-01-17T23:56:14.083Z,98.08
2023-01-17T23:58:40.769Z,98.18
